createdAt,value
2019-03-08T00:02:25.208Z,2.57
2019-03-08T00:04:54.229Z,2.27
2019-03-08T00:07:23.238Z,3.43
2019-03-08T00:09:52.538Z,2.37
2019-03-08T00:12:21.574Z,2.33
2019-03-08T00:14:50.626Z,2.50
2019-03-08T00:17:19.781Z,2.90
2019-03-08T00:19:48.873Z,2.47
2019-03-08T00:22:17.885Z,2.40
2019-03-08T00:24:47.069Z,2.57
2019-03-08T00:27:16.196Z,2.30
2019-03-08T00:29:45.266Z,2.67
2019-03-08T00:32:14.344Z,1.70
2019-03-08T00:34:43.418Z,2.50
2019-03-08T00:37:12.451Z,1.63
2019-03-08T00:39:41.531Z,2.63
2019-03-08T00:42:10.601Z,2.57
2019-03-08T00:44:39.720Z,2.47
2019-03-08T00:47:08.796Z,2.60
2019-03-08T00:49:37.922Z,3.20
2019-03-08T00:52:07.012Z,3.47
2019-03-08T00:54:36.091Z,2.70
2019-03-08T00:57:05.156Z,3.70
2019-03-08T00:59:34.211Z,3.13
2019-03-08T01:02:03.355Z,3.53
2019-03-08T01:04:32.410Z,3.30
2019-03-08T01:07:01.620Z,4.20
2019-03-08T01:09:30.689Z,3.77
2019-03-08T01:11:59.770Z,4.03
2019-03-08T01:14:28.832Z,3.40
2019-03-08T01:16:57.997Z,4.27
2019-03-08T01:19:27.122Z,3.43
2019-03-08T01:21:56.384Z,4.70
2019-03-08T01:24:25.553Z,4.07
2019-03-08T01:26:54.615Z,4.13
2019-03-08T01:29:23.636Z,4.27
2019-03-08T01:31:53.483Z,4.57
2019-03-08T01:34:22.673Z,5.00
2019-03-08T01:36:51.683Z,4.87
2019-03-08T01:39:20.753Z,4.77
2019-03-08T01:41:49.773Z,3.50
2019-03-08T01:44:18.753Z,4.50
2019-03-08T01:46:47.851Z,4.73
2019-03-08T01:49:17.205Z,4.97
2019-03-08T01:51:46.298Z,5.17
2019-03-08T01:54:15.353Z,5.20
2019-03-08T01:56:44.424Z,4.97
2019-03-08T01:59:13.469Z,6.67
2019-03-08T02:01:42.533Z,6.63
2019-03-08T02:04:11.917Z,5.53
2019-03-08T02:06:40.943Z,5.80
2019-03-08T02:09:09.985Z,5.13
2019-03-08T02:11:39.065Z,5.63
2019-03-08T02:14:08.102Z,5.07
2019-03-08T02:16:37.115Z,6.17
2019-03-08T02:19:06.120Z,6.67
2019-03-08T02:21:35.183Z,5.60
2019-03-08T02:24:04.236Z,5.53
2019-03-08T02:26:33.301Z,5.70
2019-03-08T02:29:02.300Z,5.43
2019-03-08T02:31:31.480Z,5.47
2019-03-08T02:34:00.569Z,4.83
2019-03-08T02:36:29.600Z,4.50
2019-03-08T02:38:58.688Z,4.43
2019-03-08T02:41:27.815Z,3.67
2019-03-08T02:43:56.880Z,3.97
2019-03-08T02:46:26.036Z,4.10
2019-03-08T02:48:55.094Z,4.07
2019-03-08T02:51:24.410Z,5.67
2019-03-08T02:53:53.451Z,4.40
2019-03-08T02:56:22.528Z,4.43
2019-03-08T02:58:51.590Z,5.00
2019-03-08T03:01:20.761Z,5.53
2019-03-08T03:03:49.786Z,5.23
2019-03-08T03:06:18.802Z,5.40
2019-03-08T03:08:47.826Z,5.93
2019-03-08T03:11:16.853Z,6.53
2019-03-08T03:13:45.970Z,6.33
2019-03-08T03:16:14.977Z,4.47
2019-03-08T03:18:44.039Z,4.57
2019-03-08T03:21:13.152Z,6.20
2019-03-08T03:23:42.189Z,6.10
2019-03-08T03:26:11.220Z,4.27
2019-03-08T03:28:40.578Z,4.80
2019-03-08T03:31:09.607Z,5.10
2019-03-08T03:33:38.576Z,5.43
2019-03-08T03:36:07.607Z,6.00
2019-03-08T03:38:36.617Z,4.80
2019-03-08T03:41:05.711Z,6.10
2019-03-08T03:43:34.780Z,5.30
2019-03-08T03:46:03.789Z,6.20
2019-03-08T03:48:32.808Z,6.13
2019-03-08T03:51:01.909Z,4.90
2019-03-08T03:53:30.941Z,4.93
2019-03-08T03:55:59.912Z,5.30
2019-03-08T03:58:29.031Z,4.83
2019-03-08T04:00:58.156Z,6.97
2019-03-08T04:03:27.209Z,6.37
2019-03-08T04:05:56.310Z,5.37
2019-03-08T04:08:25.346Z,5.60
2019-03-08T04:10:54.709Z,6.30
2019-03-08T04:13:23.717Z,5.20
2019-03-08T04:15:52.840Z,5.83
2019-03-08T04:18:21.893Z,6.23
2019-03-08T04:20:50.913Z,5.77
2019-03-08T04:23:19.938Z,6.20
2019-03-08T04:25:48.956Z,5.83
2019-03-08T04:28:17.944Z,5.30
2019-03-08T04:30:47.028Z,5.57
2019-03-08T04:33:16.122Z,4.97
2019-03-08T04:35:46.728Z,5.77
2019-03-08T04:38:15.788Z,6.47
2019-03-08T04:40:44.862Z,5.83
2019-03-08T04:43:13.988Z,6.60
2019-03-08T04:45:43.066Z,5.57
2019-03-08T04:48:12.120Z,5.90
2019-03-08T04:50:41.120Z,5.13
2019-03-08T04:53:10.173Z,6.57
2019-03-08T04:55:39.252Z,5.47
2019-03-08T04:58:08.304Z,5.10
2019-03-08T05:00:37.363Z,4.47
2019-03-08T05:03:06.406Z,5.70
2019-03-08T05:05:35.399Z,5.03
2019-03-08T05:08:04.714Z,5.27
2019-03-08T05:10:33.833Z,4.87
2019-03-08T05:13:02.869Z,4.57
2019-03-08T05:15:31.908Z,4.70
2019-03-08T05:18:00.984Z,4.60
2019-03-08T05:20:30.032Z,5.53
2019-03-08T05:22:59.257Z,5.60
2019-03-08T05:25:28.232Z,5.43
2019-03-08T05:27:57.259Z,6.10
2019-03-08T05:30:26.336Z,4.73
2019-03-08T05:32:55.486Z,6.17
2019-03-08T05:35:24.626Z,5.20
2019-03-08T05:37:53.788Z,4.73
2019-03-08T05:40:22.920Z,5.50
2019-03-08T05:42:52.031Z,4.20
2019-03-08T05:45:21.084Z,4.43
2019-03-08T05:47:50.167Z,4.47
2019-03-08T05:50:19.249Z,5.27
2019-03-08T05:52:48.436Z,4.73
2019-03-08T05:55:17.538Z,5.17
2019-03-08T05:57:46.704Z,4.70
2019-03-08T06:00:17.612Z,4.17
2019-03-08T06:02:46.707Z,4.47
2019-03-08T06:05:15.746Z,4.87
2019-03-08T06:07:44.831Z,4.30
2019-03-08T06:10:30.288Z,4.17
2019-03-08T06:12:59.336Z,4.23
2019-03-08T06:15:29.466Z,5.00
2019-03-08T06:17:58.814Z,4.37
2019-03-08T06:20:27.883Z,3.47
2019-03-08T06:22:56.961Z,3.63
2019-03-08T06:25:26.043Z,4.33
2019-03-08T06:27:55.197Z,5.03
2019-03-08T06:30:24.290Z,3.47
2019-03-08T06:32:53.502Z,4.70
2019-03-08T06:35:22.545Z,3.80
2019-03-08T06:37:52.099Z,3.90
2019-03-08T06:40:21.091Z,4.27
2019-03-08T06:42:56.032Z,3.27
2019-03-08T06:45:25.487Z,3.83
2019-03-08T06:47:54.519Z,3.60
2019-03-08T06:50:23.563Z,3.57
2019-03-08T06:52:52.656Z,3.63
2019-03-08T06:55:21.729Z,4.00
2019-03-08T06:58:03.601Z,3.73
2019-03-08T07:01:00.643Z,3.10
2019-03-08T07:03:48.866Z,3.70
2019-03-08T07:06:17.999Z,3.50
2019-03-08T07:08:46.998Z,3.43
2019-03-08T07:11:15.989Z,3.00
2019-03-08T07:13:46.206Z,3.47
2019-03-08T07:16:15.226Z,3.80
2019-03-08T07:18:44.537Z,4.30
2019-03-08T07:21:32.612Z,3.03
2019-03-08T07:24:32.790Z,3.10
2019-03-08T07:27:33.033Z,2.43
2019-03-08T07:30:15.968Z,2.57
2019-03-08T07:33:19.162Z,2.80
2019-03-08T07:36:19.402Z,2.30
2019-03-08T07:39:16.405Z,2.33
2019-03-08T07:42:10.766Z,2.23
2019-03-08T07:44:48.206Z,2.00
2019-03-08T07:47:35.153Z,1.90
2019-03-08T07:50:14.490Z,2.13
2019-03-08T07:52:54.026Z,1.80
2019-03-08T07:55:40.827Z,2.40
2019-03-08T07:58:22.133Z,1.97
2019-03-08T08:01:01.977Z,1.90
2019-03-08T08:03:36.910Z,1.90
2019-03-08T08:06:28.035Z,1.80
2019-03-08T08:09:06.942Z,3.00
2019-03-08T08:11:52.825Z,2.00
2019-03-08T08:14:43.709Z,2.33
2019-03-08T08:17:26.462Z,2.30
2019-03-08T08:20:26.858Z,2.30
2019-03-08T08:23:14.990Z,1.90
2019-03-08T08:26:00.055Z,2.03
2019-03-08T08:28:50.114Z,3.07
2019-03-08T08:31:50.147Z,2.53
2019-03-08T08:34:47.331Z,2.20
2019-03-08T08:37:33.020Z,2.90
2019-03-08T08:40:30.186Z,2.50
2019-03-08T08:43:17.283Z,3.00
2019-03-08T08:46:08.206Z,2.43
2019-03-08T08:48:59.316Z,2.60
2019-03-08T08:51:46.074Z,2.80
2019-03-08T08:54:25.302Z,2.73
2019-03-08T08:57:01.118Z,3.27
2019-03-08T08:59:50.160Z,3.33
2019-03-08T09:02:41.090Z,2.80
2019-03-08T09:05:29.173Z,3.03
2019-03-08T09:08:16.236Z,3.60
2019-03-08T09:11:04.872Z,3.23
2019-03-08T09:13:51.822Z,3.83
2019-03-08T09:16:42.890Z,2.77
2019-03-08T09:19:25.279Z,3.03
2019-03-08T09:22:00.761Z,2.77
2019-03-08T09:24:48.900Z,2.73
2019-03-08T09:27:25.710Z,2.50
2019-03-08T09:30:28.756Z,2.90
2019-03-08T09:33:08.699Z,3.83
2019-03-08T09:36:05.733Z,3.27
2019-03-08T09:38:52.477Z,3.23
2019-03-08T09:41:26.946Z,2.90
2019-03-08T09:44:03.400Z,3.87
2019-03-08T09:46:54.548Z,3.57
2019-03-08T09:49:45.487Z,3.37
2019-03-08T09:52:32.520Z,2.87
2019-03-08T09:55:26.581Z,3.00
2019-03-08T09:58:17.577Z,3.17
2019-03-08T10:01:04.126Z,2.57
2019-03-08T10:03:47.514Z,3.43
2019-03-08T10:06:34.618Z,3.07
2019-03-08T10:09:28.286Z,3.00
2019-03-08T10:12:14.983Z,2.47
2019-03-08T10:15:12.193Z,2.67
2019-03-08T10:17:58.914Z,3.17
2019-03-08T10:20:36.647Z,2.97
2019-03-08T10:23:24.770Z,2.53
2019-03-08T10:26:11.247Z,2.63
2019-03-08T10:28:57.586Z,3.07
2019-03-08T10:31:34.382Z,3.00
2019-03-08T10:34:25.336Z,3.03
2019-03-08T10:37:22.447Z,3.00
2019-03-08T10:40:05.683Z,2.70
2019-03-08T10:42:46.579Z,2.93
2019-03-08T10:45:31.693Z,2.70
2019-03-08T10:48:22.858Z,3.00
2019-03-08T10:51:17.712Z,2.60
2019-03-08T10:54:08.857Z,2.60
2019-03-08T10:56:56.977Z,2.43
2019-03-08T10:59:31.363Z,3.37
2019-03-08T11:02:18.203Z,2.90
2019-03-08T11:04:59.063Z,3.03
2019-03-08T11:07:53.926Z,2.40
2019-03-08T11:10:33.679Z,2.20
2019-03-08T11:13:43.226Z,2.57
2019-03-08T11:16:22.191Z,2.97
2019-03-08T11:19:08.468Z,2.80
2019-03-08T11:21:50.288Z,2.67
2019-03-08T11:24:53.718Z,3.03
2019-03-08T11:27:33.900Z,2.40
2019-03-08T11:30:14.009Z,2.60
2019-03-08T11:32:48.904Z,2.97
2019-03-08T11:35:27.417Z,2.87
2019-03-08T11:38:24.714Z,3.23
2019-03-08T11:41:06.631Z,1.83
2019-03-08T11:44:03.734Z,2.10
2019-03-08T11:46:38.802Z,2.50
2019-03-08T11:49:26.928Z,2.40
2019-03-08T11:52:08.145Z,2.13
2019-03-08T11:54:55.116Z,2.57
2019-03-08T11:57:58.448Z,2.53
2019-03-08T12:00:46.563Z,2.50
2019-03-08T12:03:27.922Z,2.50
2019-03-08T12:06:12.214Z,2.37
2019-03-08T12:09:00.299Z,2.40
2019-03-08T12:11:47.174Z,2.80
2019-03-08T12:14:28.696Z,2.90
2019-03-08T12:17:17.654Z,2.50
2019-03-08T12:19:52.405Z,2.63
2019-03-08T12:22:43.514Z,2.33
2019-03-08T12:25:17.771Z,2.17
2019-03-08T12:28:04.570Z,2.13
2019-03-08T12:30:59.795Z,2.30
2019-03-08T12:33:46.475Z,2.30
2019-03-08T12:36:29.046Z,1.90
2019-03-08T12:39:15.934Z,1.97
2019-03-08T12:41:51.065Z,2.13
2019-03-08T12:44:29.374Z,1.87
2019-03-08T12:47:16.133Z,1.53
2019-03-08T12:49:58.182Z,2.03
2019-03-08T12:52:44.762Z,1.80
2019-03-08T12:55:31.432Z,1.80
2019-03-08T12:58:18.329Z,2.07
2019-03-08T13:00:56.567Z,2.27
2019-03-08T13:04:03.131Z,1.80
2019-03-08T13:06:56.899Z,1.70
2019-03-08T13:09:32.238Z,2.00
2019-03-08T13:12:01.303Z,1.83
2019-03-08T13:14:30.264Z,1.97
2019-03-08T13:16:59.266Z,1.53
2019-03-08T13:19:29.693Z,1.80
2019-03-08T13:21:58.754Z,1.60
2019-03-08T13:24:27.802Z,1.77
2019-03-08T13:26:56.927Z,1.83
2019-03-08T13:29:25.923Z,1.70
2019-03-08T13:31:54.913Z,1.50
2019-03-08T13:34:23.876Z,1.30
2019-03-08T13:36:52.905Z,1.87
2019-03-08T13:39:21.949Z,1.50
2019-03-08T13:41:50.978Z,1.60
2019-03-08T13:44:20.038Z,1.70
2019-03-08T13:46:49.079Z,1.63
2019-03-08T13:49:20.030Z,1.47
2019-03-08T13:51:48.930Z,1.60
2019-03-08T13:54:17.998Z,1.73
2019-03-08T13:56:47.163Z,2.10
2019-03-08T13:59:16.233Z,1.40
2019-03-08T14:01:45.363Z,1.60
2019-03-08T14:04:14.536Z,1.47
2019-03-08T14:06:43.623Z,1.80
2019-03-08T14:09:12.664Z,1.83
2019-03-08T14:11:41.678Z,1.67
2019-03-08T14:14:10.727Z,1.50
2019-03-08T14:16:39.769Z,1.43
2019-03-08T14:19:08.814Z,1.83
2019-03-08T14:21:37.788Z,1.43
2019-03-08T14:24:06.819Z,1.40
2019-03-08T14:26:35.827Z,1.90
2019-03-08T14:29:04.953Z,1.63
2019-03-08T14:32:05.198Z,1.50
2019-03-08T14:34:34.384Z,1.93
2019-03-08T14:37:03.462Z,2.00
2019-03-08T14:39:32.564Z,1.80
2019-03-08T14:42:23.643Z,1.73
2019-03-08T14:45:17.710Z,1.57
2019-03-08T14:47:49.216Z,1.67
2019-03-08T14:50:18.286Z,1.50
2019-03-08T14:52:47.367Z,1.53
2019-03-08T14:55:19.111Z,1.67
2019-03-08T14:57:47.594Z,2.07
2019-03-08T15:00:21.239Z,1.30
2019-03-08T15:02:51.294Z,1.63
2019-03-08T15:05:20.503Z,1.60
2019-03-08T15:07:49.580Z,1.47
2019-03-08T15:10:19.631Z,1.60
2019-03-08T15:12:49.467Z,1.40
2019-03-08T15:15:18.721Z,1.57
2019-03-08T15:17:49.744Z,2.20
2019-03-08T15:20:18.763Z,1.60
2019-03-08T15:22:48.145Z,1.57
2019-03-08T15:25:17.247Z,1.93
2019-03-08T15:27:46.307Z,2.80
2019-03-08T15:30:16.530Z,1.67
2019-03-08T15:32:45.732Z,1.57
2019-03-08T15:35:15.244Z,2.10
2019-03-08T15:37:44.758Z,2.30
2019-03-08T15:40:16.170Z,1.80
2019-03-08T15:42:45.225Z,1.50
2019-03-08T15:45:14.295Z,1.93
2019-03-08T15:47:43.398Z,3.77
2019-03-08T15:50:14.272Z,2.10
2019-03-08T15:52:43.345Z,2.50
2019-03-08T15:55:12.392Z,2.20
2019-03-08T15:57:41.472Z,2.10
2019-03-08T16:00:16.510Z,1.93
2019-03-08T16:02:45.647Z,1.73
2019-03-08T16:05:14.779Z,1.97
2019-03-08T16:07:43.865Z,2.37
2019-03-08T16:10:13.661Z,1.90
2019-03-08T16:12:43.020Z,1.87
2019-03-08T16:15:12.151Z,2.00
2019-03-08T16:17:41.237Z,2.47
2019-03-08T16:20:11.479Z,1.90
2019-03-08T16:22:40.555Z,2.40
2019-03-08T16:25:11.337Z,1.63
2019-03-08T16:27:40.399Z,1.90
2019-03-08T16:30:18.622Z,1.67
2019-03-08T16:32:54.770Z,1.73
2019-03-08T16:35:24.029Z,1.80
2019-03-08T16:38:12.841Z,1.60
2019-03-08T16:41:00.935Z,1.97
2019-03-08T16:43:42.029Z,2.27
2019-03-08T16:46:18.821Z,1.90
2019-03-08T16:49:04.736Z,2.30
2019-03-08T16:51:41.885Z,1.63
2019-03-08T16:54:28.698Z,1.80
2019-03-08T16:57:21.207Z,1.80
2019-03-08T17:00:00.431Z,2.10
2019-03-08T17:02:37.591Z,1.97
2019-03-08T17:05:24.209Z,2.10
2019-03-08T17:08:16.988Z,1.90
2019-03-08T17:10:55.883Z,1.47
2019-03-08T17:13:47.918Z,1.80
2019-03-08T17:16:25.340Z,1.53
2019-03-08T17:19:32.090Z,1.63
2019-03-08T17:22:14.294Z,1.70
2019-03-08T17:25:09.486Z,1.47
2019-03-08T17:27:46.494Z,2.10
2019-03-08T17:30:24.362Z,1.97
2019-03-08T17:33:06.059Z,1.80
2019-03-08T17:35:53.492Z,1.70
2019-03-08T17:38:50.545Z,2.43
2019-03-08T17:41:36.145Z,1.90
2019-03-08T17:44:27.537Z,2.10
2019-03-08T17:47:12.334Z,2.00
2019-03-08T17:49:58.916Z,2.00
2019-03-08T17:52:59.190Z,2.30
2019-03-08T17:55:36.338Z,2.20
2019-03-08T17:58:33.519Z,2.00
2019-03-08T18:01:37.013Z,2.37
2019-03-08T18:04:28.314Z,2.10
2019-03-08T18:07:09.535Z,2.53
2019-03-08T18:10:09.763Z,2.03
2019-03-08T18:13:04.020Z,2.77
2019-03-08T18:15:50.810Z,2.67
2019-03-08T18:18:51.037Z,2.30
2019-03-08T18:21:31.009Z,2.63
2019-03-08T18:24:27.889Z,3.27
2019-03-08T18:27:16.051Z,3.00
2019-03-08T18:30:04.351Z,2.87
2019-03-08T18:32:52.443Z,2.30
2019-03-08T18:35:39.541Z,2.40
2019-03-08T18:38:26.086Z,2.20
2019-03-08T18:41:13.079Z,2.23
2019-03-08T18:43:56.345Z,2.43
2019-03-08T18:46:42.839Z,3.50
2019-03-08T18:49:29.800Z,2.47
2019-03-08T18:52:17.950Z,2.23
2019-03-08T18:54:57.545Z,2.03
2019-03-08T18:57:41.218Z,2.60
2019-03-08T19:00:10.006Z,2.17
2019-03-08T19:03:03.149Z,2.33
2019-03-08T19:05:44.288Z,2.07
2019-03-08T19:08:43.481Z,2.43
2019-03-08T19:11:30.296Z,2.70
2019-03-08T19:14:36.745Z,3.10
2019-03-08T19:17:21.766Z,2.47
2019-03-08T19:20:19.221Z,2.53
2019-03-08T19:23:16.566Z,2.90
2019-03-08T19:26:04.619Z,2.73
2019-03-08T19:28:46.023Z,2.70
2019-03-08T19:31:32.805Z,2.80
2019-03-08T19:34:19.633Z,2.60
2019-03-08T19:37:15.546Z,2.23
2019-03-08T19:40:06.455Z,3.80
2019-03-08T19:43:09.816Z,2.27
2019-03-08T19:46:03.935Z,2.50
2019-03-08T19:48:58.174Z,2.80
2019-03-08T19:51:49.323Z,2.97
2019-03-08T19:54:40.283Z,2.97
2019-03-08T19:57:25.012Z,3.07
2019-03-08T20:00:25.067Z,2.33
2019-03-08T20:03:10.085Z,2.47
2019-03-08T20:06:04.339Z,2.50
2019-03-08T20:08:54.001Z,3.03
2019-03-08T20:11:48.331Z,2.40
2019-03-08T20:14:32.222Z,2.03
2019-03-08T20:17:35.580Z,2.63
2019-03-08T20:20:22.188Z,2.43
2019-03-08T20:23:00.489Z,2.20
2019-03-08T20:25:48.583Z,2.13
2019-03-08T20:28:45.578Z,1.63
2019-03-08T20:31:25.203Z,1.50
2019-03-08T20:34:00.396Z,1.43
2019-03-08T20:36:45.937Z,1.33
2019-03-08T20:39:32.688Z,1.50
2019-03-08T20:42:09.770Z,1.30
2019-03-08T20:44:42.940Z,1.23
2019-03-08T20:47:15.503Z,1.67
2019-03-08T20:49:44.514Z,1.73
2019-03-08T20:52:15.036Z,2.47
2019-03-08T20:54:44.044Z,1.70
2019-03-08T20:57:13.153Z,2.37
2019-03-08T20:59:42.195Z,2.07
2019-03-08T21:02:11.334Z,2.00
2019-03-08T21:04:40.473Z,1.93
2019-03-08T21:07:09.474Z,2.63
2019-03-08T21:09:38.488Z,2.33
2019-03-08T21:12:07.464Z,2.07
2019-03-08T21:14:36.467Z,1.77
2019-03-08T21:17:05.568Z,1.40
2019-03-08T21:19:34.891Z,1.47
2019-03-08T21:22:03.860Z,1.17
2019-03-08T21:24:32.824Z,1.13
2019-03-08T21:27:01.926Z,1.40
2019-03-08T21:29:30.989Z,1.10
2019-03-08T21:32:00.018Z,1.30
2019-03-08T21:34:29.046Z,1.13
2019-03-08T21:36:58.108Z,1.37
2019-03-08T21:39:27.137Z,1.17
2019-03-08T21:41:56.236Z,1.83
2019-03-08T21:44:25.347Z,1.57
2019-03-08T21:46:54.414Z,1.70
2019-03-08T21:49:23.490Z,1.80
2019-03-08T21:51:52.557Z,1.40
2019-03-08T21:54:21.583Z,1.70
2019-03-08T21:56:50.619Z,1.90
2019-03-08T21:59:19.867Z,1.40
2019-03-08T22:01:48.962Z,1.63
2019-03-08T22:04:26.770Z,1.30
2019-03-08T22:06:55.845Z,1.40
2019-03-08T22:09:33.940Z,1.93
2019-03-08T22:12:04.040Z,1.17
2019-03-08T22:14:33.178Z,1.30
2019-03-08T22:17:02.313Z,1.33
2019-03-08T22:19:31.354Z,1.20
2019-03-08T22:22:00.488Z,1.03
2019-03-08T22:24:29.580Z,1.00
2019-03-08T22:26:58.586Z,1.90
2019-03-08T22:29:27.621Z,1.23
2019-03-08T22:31:56.753Z,1.60
2019-03-08T22:34:25.745Z,1.20
2019-03-08T22:36:54.776Z,1.20
2019-03-08T22:39:23.830Z,1.23
2019-03-08T22:41:52.836Z,1.33
2019-03-08T22:44:21.841Z,1.60
2019-03-08T22:46:50.895Z,1.67
2019-03-08T22:49:19.942Z,1.60
2019-03-08T22:51:48.960Z,1.60
2019-03-08T22:54:17.990Z,1.80
2019-03-08T22:56:46.914Z,1.60
2019-03-08T22:59:15.927Z,1.60
2019-03-08T23:01:48.065Z,1.63
2019-03-08T23:04:17.109Z,2.60
2019-03-08T23:06:46.150Z,2.00
2019-03-08T23:09:16.462Z,2.80
2019-03-08T23:11:45.696Z,3.33
2019-03-08T23:14:14.743Z,3.47
2019-03-08T23:16:43.715Z,3.33
2019-03-08T23:19:12.751Z,3.27
2019-03-08T23:21:41.798Z,3.80
2019-03-08T23:24:10.832Z,3.93
2019-03-08T23:26:53.973Z,3.83
2019-03-08T23:29:30.351Z,3.80
2019-03-08T23:32:06.351Z,3.50
2019-03-08T23:34:35.510Z,4.10
2019-03-08T23:37:04.536Z,3.27
2019-03-08T23:39:33.580Z,3.40
2019-03-08T23:42:02.627Z,3.97
2019-03-08T23:44:31.760Z,3.33
2019-03-08T23:47:01.045Z,3.30
2019-03-08T23:49:30.107Z,3.47
2019-03-08T23:52:18.415Z,3.23
2019-03-08T23:54:47.473Z,3.40
2019-03-08T23:57:16.631Z,3.50
2019-03-08T23:59:45.703Z,3.50
